• Join FlightAware (Why Join?)
  • Login
  • US Flag 
02:24PM EDT


 

Airport Tracker/Info


-or-


 

Live Flight TrackerFlight Track Log ✈ SWA158 ✈ 22-Apr-2013 ✈ KSLC - KMDW

Flight Track Log - Related Links

Times and Time Zones

All times are in EDT time to prevent confusion due to time zone crossing. See the SWA158 flight status page for this flight to view local times or setup timezone preferences in your user account.

Time Position Orientation Groundspeed Altitude Reporting Facility
EDT Latitude Longitude Course Direction KTS MPH feet Rate Location/Type
10:50AM 40.8075 -111.9619 352° North 164 189 5,100  Level Salt Lake Center
10:51AM 40.8567 -111.9708 352° North 197 227 6,700 1,800 Climbing Salt Lake Center
10:52AM 40.9183 -111.9781 355° North 247 284 8,600 2,760 Climbing Salt Lake Center
10:53AM 41.0125 -111.9469 14° North 313 360 12,700 3,060 Climbing Salt Lake Center
10:54AM 41.0200 -111.8256 85° East 351 404 15,600 2,340 Climbing Salt Lake Center
10:55AM 41.0256 -111.6942 87° East 378 435 17,600 2,100 Climbing Salt Lake Center
10:56AM 41.0353 -111.5386 85° East 426 490 20,000 2,340 Climbing Salt Lake Center
10:57AM 41.0497 -111.3775 83° East 441 507 22,500 2,040 Climbing Salt Lake Center
10:58AM 41.0669 -111.1719 84° East 470 541 24,300 1,800 Climbing Salt Lake Center
10:59AM 41.0958 -110.9931 78° East 494 568 26,300 1,800 Climbing Salt Lake Center
11:00AM 41.1394 -110.8169 72° East 500 575 28,000 1,440 Climbing Salt Lake Center
11:01AM 41.1844 -110.6417 71° East 519 597 29,300 1,620 Climbing Salt Lake Center
11:02AM 41.2386 -110.4325 71° East 536 617 31,400 1,800 Climbing Salt Lake Center
11:03AM 41.2842 -110.2533 71° East 536 617 33,100 1,740 Climbing Salt Lake Center
11:04AM 41.3358 -110.0464 72° East 530 610 35,000 900 Climbing Salt Lake Center
11:05AM 41.3803 -109.8719 71° East 523 602 35,000 720 Level Salt Lake Center
11:06AM 41.4314 -109.6656 72° East 524 603 36,500 1,320 Climbing Salt Lake Center
11:07AM 41.4753 -109.4889 72° East 524 603 37,800 1,080 Climbing Salt Lake Center
11:08AM 41.5175 -109.3125 72° East 519 597 38,800 240 Climbing Salt Lake Center
11:09AM 41.5675 -109.1075 72° East 510 587 38,300 -780 Descending Salt Lake Center
11:10AM 41.5978 -108.9236 78° East 526 605 37,300 -660 Descending Salt Lake Center
11:11AM 41.6131 -108.7361 84° East 529 609 37,000 -180 Descending Salt Lake Center
11:12AM 41.6283 -108.5183 85° East 526 605 37,000  Level Salt Lake Center
11:13AM 41.6417 -108.3333 84° East 524 603 37,000  Level Salt Lake Center
11:14AM 41.6572 -108.1197 84° East 520 598 37,000  Level Salt Lake Center
11:15AM 41.6714 -107.9378 84° East 515 593 37,000  Level Salt Lake Center
11:16AM 41.6864 -107.7256 85° East 515 593 37,000  Level Salt Lake Center
11:17AM 41.6975 -107.5431 85° East 510 587 37,000  Level Denver Center
11:17AM 41.6975 -107.5431 85° East 515 593 37,000  Level Salt Lake Center
11:18AM 41.7092 -107.3619 85° East 510 587 37,000  Level Denver Center
11:19AM 41.7231 -107.1514 85° East 511 588 37,000  Level Denver Center
11:20AM 41.7328 -106.9686 86° East 514 592 37,000  Level Denver Center
11:22AM 41.7467 -106.7569 85° East 513 590 37,000  Level Denver Center
11:23AM 41.7581 -106.5764 85° East 511 588 37,000  Level Denver Center
11:24AM 41.7717 -106.3344 86° East 510 587 37,000  Level Denver Center
11:25AM 41.7819 -106.1536 86° East 509 586 37,000  Level Denver Center
11:26AM 41.7925 -105.9425 86° East 510 587 37,000  Level Denver Center
11:27AM 41.8006 -105.7600 87° East 512 589 37,000  Level Denver Center
11:28AM 41.8106 -105.5767 86° East 516 594 37,000  Level Denver Center
11:29AM 41.8203 -105.3694 86° East 505 581 37,000  Level Denver Center
11:30AM 41.8303 -105.1583 86° East 509 586 37,000  Level Denver Center
11:31AM 41.8386 -104.9808 86° East 504 580 37,000  Level Denver Center
11:32AM 41.8467 -104.7750 87° East 500 575 37,000  Level Denver Center
11:33AM 41.8539 -104.5989 87° East 496 571 37,000  Level Denver Center
11:34AM 41.8617 -104.3925 87° East 499 574 37,000  Level Denver Center
11:35AM 41.8692 -104.2169 87° East 498 573 37,000  Level Denver Center
11:36AM 41.8764 -104.0114 87° East 496 571 37,000  Level Denver Center
11:37AM 41.8822 -103.8353 87° East 497 572 37,000  Level Denver Center
11:38AM 41.8881 -103.6289 88° East 498 573 37,000  Level Denver Center
11:39AM 41.8933 -103.4819 87° East 496 571 37,000  Level Denver Center
11:40AM 41.8742 -103.2481 96° East 497 572 37,000  Level Denver Center
11:41AM 41.8606 -103.0717 96° East 498 573 37,000  Level Denver Center
11:42AM 41.8431 -102.8672 96° East 496 571 37,000  Level Denver Center
11:43AM 41.8286 -102.6939 96° East 491 565 37,000  Level Denver Center
11:44AM 41.8114 -102.4931 96° East 485 558 37,000  Level Denver Center
11:46AM 41.7958 -102.3219 97° East 484 557 37,000  Level Denver Center
11:47AM 41.7794 -102.1369 97° East 488 562 37,000  Level Denver Center
11:48AM 41.7614 -101.9342 97° East 491 565 37,000  Level Denver Center
11:49AM 41.7469 -101.7594 96° East 492 566 37,000  Level Denver Center
11:50AM 41.7269 -101.5575 97° East 490 564 37,000  Level Denver Center
11:51AM 41.7100 -101.3817 97° East 496 571 37,000  Level Denver Center
11:52AM 41.6933 -101.2078 97° East 493 567 37,000  Level Denver Center
11:53AM 41.6731 -101.0056 98° East 491 565 37,000  Level Denver Center
11:54AM 41.6558 -100.8331 98° East 487 560 37,000  Level Denver Center
11:55AM 41.6353 -100.6353 98° East 481 554 37,000  Level Denver Center
11:56AM 41.6172 -100.4644 98° East 484 557 37,000  Level Denver Center
11:57AM 41.5967 -100.2647 98° East 484 557 37,000  Level Denver Center
11:58AM 41.5778 -100.0939 98° East 484 557 37,000  Level Denver Center
11:59AM 41.5564 -99.8933 98° East 487 560 37,000  Level Denver Center
12:00PM 41.5361 -99.7122 98° East 490 564 37,000  Level Denver Center
12:01PM 41.5158 -99.5325 99° East 489 563 37,000  Level Denver Center
12:02PM 41.4953 -99.3514 99° East 491 565 37,000  Level Denver Center
12:03PM 41.4750 -99.1714 98° East 489 563 37,000  Level Denver Center
12:04PM 41.4522 -98.9908 99° East 488 562 37,000  Level Denver Center
12:05PM 41.4317 -98.8097 99° East 488 562 37,100 480 Climbing Denver Center
12:06PM 41.3994 -98.5500 99° East 506 582 38,100 780 Climbing Minneapolis Center
12:07PM 41.3822 -98.3508 97° East 516 594 39,000 420 Climbing Minneapolis Center
12:08PM 41.3867 -98.1606 88° East 512 589 39,000  Level Minneapolis Center
12:10PM 41.3881 -97.9828 89° East 508 585 39,000  Level Minneapolis Center
12:11PM 41.3894 -97.7939 89° East 509 586 39,000  Level Minneapolis Center
12:12PM 41.3903 -97.6061 90° East 508 585 39,000  Level Minneapolis Center
12:13PM 41.3908 -97.4183 90° East 508 585 39,000  Level Minneapolis Center
12:14PM 41.3931 -97.2308 89° East 507 583 39,000  Level Minneapolis Center
12:15PM 41.3925 -97.0044 90° East 509 586 39,000  Level Minneapolis Center
12:16PM 41.3917 -96.8167 90° East 508 585 39,000  Level Minneapolis Center
12:17PM 41.3931 -96.6272 89° East 511 588 39,000  Level Minneapolis Center
12:18PM 41.3925 -96.4375 90° East 514 592 39,000  Level Minneapolis Center
12:19PM 41.3903 -96.2342 91° East 513 590 39,000  Level Minneapolis Center
12:20PM 41.3842 -96.0411 92° East 518 596 39,000  Level Minneapolis Center
12:21PM 41.3814 -95.8494 91° East 518 596 39,000  Level Minneapolis Center
12:22PM 41.3814 -95.6575 90° East 519 597 39,000  Level Minneapolis Center
12:23PM 41.3828 -95.4628 89° East 516 594 39,000  Level Minneapolis Center
12:24PM 41.3797 -95.2764 91° East 507 583 39,000  Level Minneapolis Center
12:25PM 41.3781 -95.0942 91° East 497 572 39,000  Level Minneapolis Center
12:26PM 41.3750 -94.9117 91° East 494 568 39,000  Level Minneapolis Center
12:27PM 41.3717 -94.7300 91° East 493 567 39,000  Level Minneapolis Center
12:28PM 41.3669 -94.5522 92° East 485 558 39,000  Level Minneapolis Center
12:29PM 41.3611 -94.3367 92° East 485 558 39,000  Level Minneapolis Center
12:30PM 41.3581 -94.1772 91° East 487 560 39,000  Level Minneapolis Center
12:31PM 41.3544 -93.9978 91° East 488 562 39,000  Level Minneapolis Center
12:32PM 41.3481 -93.7833 92° East 487 560 39,000  Level Minneapolis Center
12:33PM 41.3436 -93.6042 92° East 487 560 39,000  Level Minneapolis Center
12:34PM 41.3403 -93.4217 91° East 492 566 39,000  Level Minneapolis Center
12:35PM 41.3350 -93.2414 92° East 492 566 39,000  Level Minneapolis Center
12:36PM 41.3281 -93.0644 93° East 487 560 39,000  Level Minneapolis Center
12:37PM 41.3225 -92.8861 92° East 485 558 39,000 -180 Level Minneapolis Center
12:38PM 41.3150 -92.7078 93° East 484 557 38,700 -600 Descending Minneapolis Center
12:39PM 41.3108 -92.6031 93° East 479 551 38,100 -1,080 Descending Chicago Center
12:40PM 41.3050 -92.4300 93° East 474 545 37,100 -840 Descending Chicago Center
12:41PM 41.3000 -92.2564 92° East 476 548 36,400 -960 Descending Chicago Center
12:42PM 41.2908 -92.0547 93° East 465 535 35,200 -1,080 Descending Chicago Center
12:43PM 41.2828 -91.8847 94° East 465 535 34,200 -1,020 Descending Chicago Center
12:44PM 41.2764 -91.7169 93° East 461 531 33,200 -1,320 Descending Chicago Center
12:45PM 41.2694 -91.5528 93° East 454 522 31,500 -1,800 Descending Chicago Center
12:46PM 41.2594 -91.3853 94° East 458 527 29,500 -1,260 Descending Chicago Center
12:47PM 41.2503 -91.1942 94° East 462 532 29,000 -1,020 Descending Chicago Center
12:48PM 41.2428 -91.0261 93° East 457 526 27,500 -2,100 Descending Chicago Center
12:49PM 41.2339 -90.8578 94° East 456 525 24,700 -1,740 Descending Chicago Center
12:50PM 41.2253 -90.6950 94° East 444 511 24,000 -360 Descending Chicago Center
12:51PM 41.2169 -90.5356 94° East 435 501 24,000 -540 Level Chicago Center
12:52PM 41.2050 -90.3408 95° East 439 505 23,000 -600 Descending Chicago Center
12:53PM 41.1961 -90.1778 94° East 441 507 22,800 -1,200 Descending Chicago Center
12:54PM 41.1864 -90.0131 94° East 443 510 20,600 -2,220 Descending Chicago Center
12:55PM 41.1772 -89.8544 94° East 429 494 18,300 -2,040 Descending Chicago Center
12:56PM 41.1672 -89.7006 95° East 418 481 16,400 -1,560 Descending Chicago Center
12:57PM 41.1619 -89.5531 93° East 402 463 15,200 -1,080 Descending Chicago Center
12:58PM 41.1728 -89.4064 84° East 399 459 14,200 -1,020 Descending Chicago Center
12:59PM 41.1825 -89.2611 85° East 395 455 13,200 -1,020 Descending Chicago Center
01:00PM 41.1919 -89.1161 85° East 386 444 12,200 -1,080 Descending Chicago Center
01:01PM 41.2028 -88.9508 85° East 379 436 11,000 -1,020 Descending Chicago Center
01:02PM 41.2097 -88.8181 86° East 371 427 10,100 -780 Descending Chicago Center
01:03PM 41.2500 -88.7186 62° Northeast 344 396 9,500 -960 Descending Chicago Center
01:04PM 41.3078 -88.6414 45° Northeast 313 360 8,200 -1,140 Descending Chicago Center
01:06PM 41.3636 -88.5653 46° Northeast 298 343 7,200 -1,020 Descending Chicago Center
01:07PM 41.4189 -88.4908 45° Northeast 289 333 6,200 -840 Descending Chicago Center
01:08PM 41.4756 -88.3969 51° Northeast 281 323 5,500 -600 Descending Chicago Center
01:09PM 41.5072 -88.3053 65° Northeast 274 315 5,000 -300 Descending Chicago Center
01:10PM 41.5372 -88.2131 66° East 271 312 5,000  Level Chicago Center
01:11PM 41.5544 -88.1153 77° East 272 313 5,000  Level Chicago Center
01:12PM 41.5733 -88.0175 75° East 269 310 5,000  Level Chicago Center
01:13PM 41.5919 -87.9214 75° East 268 308 5,000 -600 Level Chicago Center
01:14PM 41.6117 -87.8244 75° East 268 308 3,800 -840 Descending Chicago Center
01:15PM 41.6306 -87.7350 74° East 262 302 3,300 -540 Descending Chicago Center
01:15PM 41.6500 -87.6833 63° Northeast 216 249 3,000 -540 Descending Chicago TRACON
01:16PM 41.6833 -87.6333 48° Northeast 199 229 2,500 -300 Descending Chicago TRACON
01:17PM 41.7333 -87.6500 346° North 178 205 2,400 -300 Descending Chicago TRACON
01:18PM 41.7667 -87.6500 360° North 174 200 1,900 -420 Descending Chicago TRACON
01:19PM 41.8167 -87.6833 334° Northwest 160 184 1,600 -480 Descending Chicago TRACON
01:20PM 41.8000 -87.7333 246° West 134 154 900 -720 Descending Chicago TRACON